sensor_id;sensor_type;location;lat;lon;timestamp;pressure;altitude;pressure_sealevel;temperature;humidity
59831;BME280;45711;50.108;13.712;2023-03-22T00:00:06;97638.44;;;9.44;95.88
59831;BME280;45711;50.108;13.712;2023-03-22T00:02:38;97635.75;;;9.49;95.78
59831;BME280;45711;50.108;13.712;2023-03-22T00:05:05;97647.53;;;9.43;98.03
59831;BME280;45711;50.108;13.712;2023-03-22T00:07:31;97638.94;;;9.51;96.77
59831;BME280;45711;50.108;13.712;2023-03-22T00:09:57;97637.19;;;9.37;98.55
59831;BME280;45711;50.108;13.712;2023-03-22T00:12:22;97633.22;;;9.29;97.81
59831;BME280;45711;50.108;13.712;2023-03-22T00:14:50;97623.13;;;9.21;98.55
59831;BME280;45711;50.108;13.712;2023-03-22T00:17:18;97635.97;;;9.19;97.87
59831;BME280;45711;50.108;13.712;2023-03-22T00:19:48;97626.59;;;9.21;97.36
59831;BME280;45711;50.108;13.712;2023-03-22T00:22:14;97626.91;;;9.54;93.23
59831;BME280;45711;50.108;13.712;2023-03-22T00:24:40;97625.78;;;9.60;94.70
59831;BME280;45711;50.108;13.712;2023-03-22T00:27:06;97626.19;;;9.77;90.78
59831;BME280;45711;50.108;13.712;2023-03-22T00:29:33;97628.38;;;9.70;93.04
59831;BME280;45711;50.108;13.712;2023-03-22T00:32:01;97631.41;;;9.59;93.22
59831;BME280;45711;50.108;13.712;2023-03-22T00:34:30;97633.94;;;9.40;95.13
59831;BME280;45711;50.108;13.712;2023-03-22T00:37:08;97623.16;;;9.55;93.65
59831;BME280;45711;50.108;13.712;2023-03-22T00:39:36;97626.44;;;9.47;95.21
59831;BME280;45711;50.108;13.712;2023-03-22T00:42:03;97623.75;;;9.47;95.01
59831;BME280;45711;50.108;13.712;2023-03-22T00:44:31;97614.41;;;9.49;93.70
59831;BME280;45711;50.108;13.712;2023-03-22T00:46:57;97619.56;;;9.30;96.56
59831;BME280;45711;50.108;13.712;2023-03-22T00:49:23;97620.69;;;9.24;96.99
59831;BME280;45711;50.108;13.712;2023-03-22T00:51:50;97618.50;;;9.31;98.36
59831;BME280;45711;50.108;13.712;2023-03-22T00:54:17;97620.41;;;9.65;91.50
59831;BME280;45711;50.108;13.712;2023-03-22T00:57:01;97615.75;;;9.47;94.95
59831;BME280;45711;50.108;13.712;2023-03-22T00:59:27;97626.16;;;9.82;88.13
59831;BME280;45711;50.108;13.712;2023-03-22T01:01:53;97623.31;;;9.69;90.44
59831;BME280;45711;50.108;13.712;2023-03-22T01:04:22;97622.81;;;9.27;95.74
59831;BME280;45711;50.108;13.712;2023-03-22T01:07:04;97622.34;;;9.15;96.94
59831;BME280;45711;50.108;13.712;2023-03-22T01:09:33;97620.47;;;9.16;97.22
59831;BME280;45711;50.108;13.712;2023-03-22T01:12:02;97612.78;;;9.04;98.33
59831;BME280;45711;50.108;13.712;2023-03-22T01:14:28;97604.09;;;9.32;94.13
59831;BME280;45711;50.108;13.712;2023-03-22T01:16:58;97614.41;;;9.00;97.55
59831;BME280;45711;50.108;13.712;2023-03-22T01:19:23;97604.88;;;8.89;99.24
59831;BME280;45711;50.108;13.712;2023-03-22T01:21:51;97594.97;;;8.94;97.70
59831;BME280;45711;50.108;13.712;2023-03-22T01:24:17;97596.69;;;8.70;98.47
59831;BME280;45711;50.108;13.712;2023-03-22T01:26:46;97580.22;;;8.52;100.00
59831;BME280;45711;50.108;13.712;2023-03-22T01:29:12;97594.31;;;8.68;100.00
59831;BME280;45711;50.108;13.712;2023-03-22T01:31:38;97599.28;;;8.85;96.56
59831;BME280;45711;50.108;13.712;2023-03-22T01:34:10;97583.44;;;8.49;98.03
59831;BME280;45711;50.108;13.712;2023-03-22T01:36:43;97588.28;;;8.22;100.00
59831;BME280;45711;50.108;13.712;2023-03-22T01:39:11;97585.25;;;8.64;96.33
59831;BME280;45711;50.108;13.712;2023-03-22T01:41:45;97586.66;;;8.31;98.09
59831;BME280;45711;50.108;13.712;2023-03-22T01:44:21;97573.66;;;8.14;99.96
59831;BME280;45711;50.108;13.712;2023-03-22T01:46:48;97580.50;;;8.51;96.82
59831;BME280;45711;50.108;13.712;2023-03-22T01:49:20;97575.19;;;8.36;98.48
59831;BME280;45711;50.108;13.712;2023-03-22T01:51:56;97569.16;;;7.94;98.90
59831;BME280;45711;50.108;13.712;2023-03-22T01:54:27;97568.28;;;8.29;96.72
59831;BME280;45711;50.108;13.712;2023-03-22T01:57:08;97564.66;;;8.70;94.81
59831;BME280;45711;50.108;13.712;2023-03-22T01:59:52;97559.31;;;8.75;95.04
59831;BME280;45711;50.108;13.712;2023-03-22T02:02:19;97569.97;;;8.75;94.77
59831;BME280;45711;50.108;13.712;2023-03-22T02:04:47;97573.84;;;8.53;95.29
59831;BME280;45711;50.108;13.712;2023-03-22T02:07:24;97571.22;;;8.38;94.39
59831;BME280;45711;50.108;13.712;2023-03-22T02:09:53;97582.22;;;7.91;94.80
59831;BME280;45711;50.108;13.712;2023-03-22T02:12:29;97582.69;;;8.18;93.89
59831;BME280;45711;50.108;13.712;2023-03-22T02:15:07;97573.22;;;7.66;96.06
59831;BME280;45711;50.108;13.712;2023-03-22T02:17:45;97578.25;;;7.37;96.74
59831;BME280;45711;50.108;13.712;2023-03-22T02:20:50;97575.56;;;7.12;98.08
59831;BME280;45711;50.108;13.712;2023-03-22T02:24:04;97583.84;;;7.25;97.94
59831;BME280;45711;50.108;13.712;2023-03-22T02:29:42;97576.38;;;7.17;98.94
59831;BME280;45711;50.108;13.712;2023-03-22T02:32:52;97580.03;;;6.86;99.25
59831;BME280;45711;50.108;13.712;2023-03-22T02:35:30;97575.06;;;7.35;97.25
59831;BME280;45711;50.108;13.712;2023-03-22T02:41:07;97570.47;;;6.95;100.00
59831;BME280;45711;50.108;13.712;2023-03-22T02:43:49;97576.59;;;6.95;98.45
59831;BME280;45711;50.108;13.712;2023-03-22T02:46:26;97579.72;;;6.72;98.88
59831;BME280;45711;50.108;13.712;2023-03-22T02:49:02;97579.44;;;6.58;97.56
59831;BME280;45711;50.108;13.712;2023-03-22T02:51:29;97576.69;;;6.38;99.11
59831;BME280;45711;50.108;13.712;2023-03-22T02:54:01;97576.22;;;6.56;99.96
59831;BME280;45711;50.108;13.712;2023-03-22T02:56:42;97570.75;;;6.88;100.00
59831;BME280;45711;50.108;13.712;2023-03-22T02:59:11;97572.00;;;6.65;98.78
59831;BME280;45711;50.108;13.712;2023-03-22T03:01:46;97560.53;;;6.60;98.28
59831;BME280;45711;50.108;13.712;2023-03-22T03:04:18;97564.69;;;6.35;98.80
59831;BME280;45711;50.108;13.712;2023-03-22T03:06:50;97567.03;;;6.26;99.09
59831;BME280;45711;50.108;13.712;2023-03-22T03:09:26;97569.63;;;6.11;97.60
59831;BME280;45711;50.108;13.712;2023-03-22T03:12:07;97572.94;;;5.91;98.82
59831;BME280;45711;50.108;13.712;2023-03-22T03:14:33;97572.41;;;5.89;98.30
59831;BME280;45711;50.108;13.712;2023-03-22T03:17:14;97567.44;;;5.66;99.35
59831;BME280;45711;50.108;13.712;2023-03-22T03:19:54;97567.28;;;5.77;100.00
59831;BME280;45711;50.108;13.712;2023-03-22T03:22:32;97566.28;;;5.89;100.00
59831;BME280;45711;50.108;13.712;2023-03-22T03:25:06;97565.88;;;5.70;100.00
59831;BME280;45711;50.108;13.712;2023-03-22T03:27:40;97567.75;;;5.69;100.00
59831;BME280;45711;50.108;13.712;2023-03-22T03:30:19;97566.09;;;5.95;100.00
59831;BME280;45711;50.108;13.712;2023-03-22T03:32:58;97554.00;;;6.20;100.00
59831;BME280;45711;50.108;13.712;2023-03-22T03:35:31;97558.22;;;6.11;100.00
59831;BME280;45711;50.108;13.712;2023-03-22T03:38:15;97555.53;;;6.06;99.41
59831;BME280;45711;50.108;13.712;2023-03-22T03:40:51;97557.66;;;6.09;97.84
59831;BME280;45711;50.108;13.712;2023-03-22T03:43:24;97558.81;;;5.80;98.19
59831;BME280;45711;50.108;13.712;2023-03-22T03:46:04;97557.75;;;5.82;98.72
59831;BME280;45711;50.108;13.712;2023-03-22T03:48:37;97569.09;;;5.72;98.53
59831;BME280;45711;50.108;13.712;2023-03-22T03:51:07;97564.25;;;5.64;99.43
59831;BME280;45711;50.108;13.712;2023-03-22T03:53:43;97556.31;;;5.64;99.18
59831;BME280;45711;50.108;13.712;2023-03-22T03:56:13;97559.28;;;5.72;99.50
59831;BME280;45711;50.108;13.712;2023-03-22T03:58:46;97552.69;;;5.43;98.56
59831;BME280;45711;50.108;13.712;2023-03-22T04:01:15;97563.72;;;5.29;99.49
59831;BME280;45711;50.108;13.712;2023-03-22T04:03:46;97565.16;;;5.10;99.67
59831;BME280;45711;50.108;13.712;2023-03-22T04:10:50;97571.22;;;5.06;100.00
59831;BME280;45711;50.108;13.712;2023-03-22T04:13:31;97572.47;;;4.98;100.00
59831;BME280;45711;50.108;13.712;2023-03-22T04:19:42;97577.59;;;4.83;100.00
59831;BME280;45711;50.108;13.712;2023-03-22T04:22:14;97585.56;;;4.83;100.00
59831;BME280;45711;50.108;13.712;2023-03-22T04:24:43;97573.47;;;4.70;100.00
59831;BME280;45711;50.108;13.712;2023-03-22T04:27:17;97571.66;;;4.70;100.00
59831;BME280;45711;50.108;13.712;2023-03-22T04:29:43;97580.16;;;4.72;100.00
59831;BME280;45711;50.108;13.712;2023-03-22T04:32:14;97569.50;;;4.67;100.00
59831;BME280;45711;50.108;13.712;2023-03-22T04:34:44;97575.22;;;4.81;100.00
59831;BME280;45711;50.108;13.712;2023-03-22T04:41:02;97584.97;;;4.75;100.00
59831;BME280;45711;50.108;13.712;2023-03-22T04:43:27;97583.50;;;4.63;100.00
59831;BME280;45711;50.108;13.712;2023-03-22T04:45:53;97589.97;;;4.50;99.73
59831;BME280;45711;50.108;13.712;2023-03-22T04:48:22;97592.69;;;4.55;100.00
59831;BME280;45711;50.108;13.712;2023-03-22T04:50:53;97587.75;;;4.42;100.00
59831;BME280;45711;50.108;13.712;2023-03-22T04:53:19;97596.06;;;4.28;100.00
59831;BME280;45711;50.108;13.712;2023-03-22T04:55:52;97594.41;;;4.22;100.00
59831;BME280;45711;50.108;13.712;2023-03-22T04:58:18;97596.00;;;4.23;100.00
59831;BME280;45711;50.108;13.712;2023-03-22T05:00:48;97588.47;;;4.15;100.00
59831;BME280;45711;50.108;13.712;2023-03-22T05:03:16;97593.28;;;4.18;100.00
59831;BME280;45711;50.108;13.712;2023-03-22T05:05:50;97590.69;;;4.23;100.00
59831;BME280;45711;50.108;13.712;2023-03-22T05:08:39;97589.66;;;4.24;99.90
59831;BME280;45711;50.108;13.712;2023-03-22T05:11:11;97589.16;;;4.27;100.00
59831;BME280;45711;50.108;13.712;2023-03-22T05:14:16;97589.72;;;4.29;100.00
59831;BME280;45711;50.108;13.712;2023-03-22T05:17:15;97592.78;;;4.21;99.85
59831;BME280;45711;50.108;13.712;2023-03-22T05:20:29;97585.34;;;4.18;100.00
59831;BME280;45711;50.108;13.712;2023-03-22T05:23:21;97584.66;;;4.28;100.00
59831;BME280;45711;50.108;13.712;2023-03-22T05:26:27;97586.75;;;4.26;100.00
59831;BME280;45711;50.108;13.712;2023-03-22T05:29:32;97595.88;;;4.35;100.00
59831;BME280;45711;50.108;13.712;2023-03-22T05:32:41;97596.06;;;4.50;100.00
59831;BME280;45711;50.108;13.712;2023-03-22T05:39:02;97588.75;;;4.58;100.00
59831;BME280;45711;50.108;13.712;2023-03-22T05:42:00;97597.16;;;4.76;100.00
59831;BME280;45711;50.108;13.712;2023-03-22T05:44:39;97588.38;;;4.98;100.00
59831;BME280;45711;50.108;13.712;2023-03-22T05:47:16;97591.59;;;4.78;100.00
59831;BME280;45711;50.108;13.712;2023-03-22T05:53:03;97592.75;;;4.87;100.00
59831;BME280;45711;50.108;13.712;2023-03-22T05:55:47;97596.13;;;5.04;100.00
59831;BME280;45711;50.108;13.712;2023-03-22T05:58:25;97600.44;;;5.11;100.00
59831;BME280;45711;50.108;13.712;2023-03-22T06:01:13;97593.53;;;5.10;100.00
59831;BME280;45711;50.108;13.712;2023-03-22T06:03:58;97595.97;;;5.16;100.00
59831;BME280;45711;50.108;13.712;2023-03-22T06:06:58;97593.41;;;5.26;100.00
59831;BME280;45711;50.108;13.712;2023-03-22T06:09:47;97590.44;;;5.50;99.82
59831;BME280;45711;50.108;13.712;2023-03-22T06:14:11;97588.69;;;5.66;99.54
59831;BME280;45711;50.108;13.712;2023-03-22T06:19:20;97583.94;;;5.68;100.00
59831;BME280;45711;50.108;13.712;2023-03-22T06:22:24;97582.47;;;5.87;99.51
59831;BME280;45711;50.108;13.712;2023-03-22T06:25:21;97579.81;;;6.24;97.60
59831;BME280;45711;50.108;13.712;2023-03-22T06:27:49;97574.34;;;6.51;97.25
59831;BME280;45711;50.108;13.712;2023-03-22T06:30:28;97585.88;;;6.88;97.09
59831;BME280;45711;50.108;13.712;2023-03-22T06:36:12;97588.91;;;7.47;93.43
59831;BME280;45711;50.108;13.712;2023-03-22T06:38:54;97579.59;;;7.80;90.35
59831;BME280;45711;50.108;13.712;2023-03-22T06:41:29;97579.50;;;8.37;87.55
59831;BME280;45711;50.108;13.712;2023-03-22T06:44:05;97578.13;;;9.38;84.09
59831;BME280;45711;50.108;13.712;2023-03-22T06:46:38;97581.09;;;10.00;83.09
59831;BME280;45711;50.108;13.712;2023-03-22T06:49:30;97595.22;;;11.01;78.30
59831;BME280;45711;50.108;13.712;2023-03-22T06:52:13;97597.81;;;11.25;75.94
59831;BME280;45711;50.108;13.712;2023-03-22T06:54:43;97594.63;;;11.94;75.60
59831;BME280;45711;50.108;13.712;2023-03-22T06:57:11;97589.47;;;11.78;73.26
59831;BME280;45711;50.108;13.712;2023-03-22T06:59:47;97596.56;;;11.88;74.42
59831;BME280;45711;50.108;13.712;2023-03-22T07:02:12;97597.97;;;12.46;69.79
59831;BME280;45711;50.108;13.712;2023-03-22T07:04:41;97583.84;;;12.26;70.12
59831;BME280;45711;50.108;13.712;2023-03-22T07:07:18;97587.50;;;12.58;70.87
59831;BME280;45711;50.108;13.712;2023-03-22T07:12:37;97579.84;;;12.10;70.15
59831;BME280;45711;50.108;13.712;2023-03-22T07:19:08;97591.78;;;12.73;66.94
59831;BME280;45711;50.108;13.712;2023-03-22T07:21:39;97587.50;;;12.30;68.81
59831;BME280;45711;50.108;13.712;2023-03-22T07:27:33;97587.53;;;12.72;67.20
59831;BME280;45711;50.108;13.712;2023-03-22T07:30:30;97584.53;;;13.23;69.42
59831;BME280;45711;50.108;13.712;2023-03-22T07:36:14;97585.53;;;13.27;65.84
59831;BME280;45711;50.108;13.712;2023-03-22T07:38:56;97580.38;;;13.17;65.86
59831;BME280;45711;50.108;13.712;2023-03-22T07:41:24;97580.06;;;12.55;67.88
59831;BME280;45711;50.108;13.712;2023-03-22T07:43:59;97573.41;;;12.11;69.66
59831;BME280;45711;50.108;13.712;2023-03-22T07:47:09;97576.59;;;12.41;68.44
59831;BME280;45711;50.108;13.712;2023-03-22T07:53:21;97575.75;;;14.30;66.60
59831;BME280;45711;50.108;13.712;2023-03-22T07:57:02;97574.63;;;14.31;62.08
59831;BME280;45711;50.108;13.712;2023-03-22T08:03:05;97565.88;;;14.17;61.14
59831;BME280;45711;50.108;13.712;2023-03-22T08:07:23;97560.25;;;13.15;64.92
59831;BME280;45711;50.108;13.712;2023-03-22T08:13:12;97561.16;;;14.71;62.26
59831;BME280;45711;50.108;13.712;2023-03-22T08:22:46;97564.97;;;16.47;55.14
59831;BME280;45711;50.108;13.712;2023-03-22T08:26:05;97560.78;;;16.58;54.96
59831;BME280;45711;50.108;13.712;2023-03-22T08:28:56;97568.97;;;16.79;54.60
59831;BME280;45711;50.108;13.712;2023-03-22T08:32:26;97568.47;;;16.47;55.07
59831;BME280;45711;50.108;13.712;2023-03-22T08:34:54;97571.53;;;16.75;55.02
59831;BME280;45711;50.108;13.712;2023-03-22T08:37:32;97571.69;;;17.00;53.18
59831;BME280;45711;50.108;13.712;2023-03-22T08:50:09;97564.88;;;15.44;56.95
59831;BME280;45711;50.108;13.712;2023-03-22T08:52:45;97568.75;;;16.16;55.52
59831;BME280;45711;50.108;13.712;2023-03-22T08:55:27;97572.91;;;16.05;56.55
59831;BME280;45711;50.108;13.712;2023-03-22T09:03:22;97564.97;;;16.08;55.69
59831;BME280;45711;50.108;13.712;2023-03-22T09:04:27;97560.06;;;15.93;57.83
59831;BME280;45711;50.108;13.712;2023-03-22T09:09:16;97553.28;;;15.61;57.19
59831;BME280;45711;50.108;13.712;2023-03-22T09:10:22;97552.81;;;14.81;59.04
59831;BME280;45711;50.108;13.712;2023-03-22T09:13:10;97543.44;;;14.30;63.19
59831;BME280;45711;50.108;13.712;2023-03-22T09:18:54;97539.13;;;14.51;60.75
59831;BME280;45711;50.108;13.712;2023-03-22T09:21:46;97538.78;;;14.13;62.64
59831;BME280;45711;50.108;13.712;2023-03-22T09:24:34;97534.75;;;13.93;62.99
59831;BME280;45711;50.108;13.712;2023-03-22T09:27:10;97544.28;;;14.48;60.97
59831;BME280;45711;50.108;13.712;2023-03-22T09:29:56;97533.91;;;14.55;61.77
59831;BME280;45711;50.108;13.712;2023-03-22T09:32:56;97532.66;;;13.59;63.85
59831;BME280;45711;50.108;13.712;2023-03-22T09:37:13;97532.25;;;13.74;64.09
59831;BME280;45711;50.108;13.712;2023-03-22T09:38:57;97528.84;;;14.62;61.53
59831;BME280;45711;50.108;13.712;2023-03-22T09:41:35;97530.72;;;12.78;67.13
59831;BME280;45711;50.108;13.712;2023-03-22T09:44:05;97516.56;;;12.50;68.57
59831;BME280;45711;50.108;13.712;2023-03-22T09:46:40;97524.06;;;12.62;68.96
59831;BME280;45711;50.108;13.712;2023-03-22T09:49:19;97515.13;;;12.80;68.21
59831;BME280;45711;50.108;13.712;2023-03-22T09:51:53;97513.00;;;13.14;68.73
59831;BME280;45711;50.108;13.712;2023-03-22T09:54:39;97516.78;;;13.26;69.47
59831;BME280;45711;50.108;13.712;2023-03-22T09:57:24;97514.78;;;15.17;60.80
59831;BME280;45711;50.108;13.712;2023-03-22T10:00:08;97510.47;;;15.59;59.52
59831;BME280;45711;50.108;13.712;2023-03-22T10:02:56;97504.91;;;14.52;62.50
59831;BME280;45711;50.108;13.712;2023-03-22T10:05:46;97504.06;;;14.43;62.48
59831;BME280;45711;50.108;13.712;2023-03-22T10:08:34;97494.75;;;15.62;58.92
59831;BME280;45711;50.108;13.712;2023-03-22T10:11:17;97499.34;;;14.48;61.99
59831;BME280;45711;50.108;13.712;2023-03-22T10:14:12;97498.44;;;14.70;59.00
59831;BME280;45711;50.108;13.712;2023-03-22T10:16:59;97482.44;;;14.17;62.36
59831;BME280;45711;50.108;13.712;2023-03-22T10:19:33;97486.06;;;14.61;59.88
59831;BME280;45711;50.108;13.712;2023-03-22T10:22:04;97483.78;;;13.97;63.20
59831;BME280;45711;50.108;13.712;2023-03-22T10:27:48;97488.50;;;13.29;65.66
59831;BME280;45711;50.108;13.712;2023-03-22T10:30:23;97485.28;;;13.72;63.87
59831;BME280;45711;50.108;13.712;2023-03-22T10:33:20;97477.69;;;14.79;59.87
59831;BME280;45711;50.108;13.712;2023-03-22T10:36:06;97479.59;;;14.88;57.16
59831;BME280;45711;50.108;13.712;2023-03-22T10:38:38;97479.41;;;13.39;65.11
59831;BME280;45711;50.108;13.712;2023-03-22T10:41:17;97460.44;;;13.21;65.98
59831;BME280;45711;50.108;13.712;2023-03-22T10:43:53;97458.53;;;12.41;69.08
59831;BME280;45711;50.108;13.712;2023-03-22T10:46:50;97453.13;;;13.36;64.45
59831;BME280;45711;50.108;13.712;2023-03-22T10:49:26;97455.84;;;15.07;59.07
59831;BME280;45711;50.108;13.712;2023-03-22T10:51:58;97464.00;;;14.41;59.00
59831;BME280;45711;50.108;13.712;2023-03-22T10:54:53;97454.94;;;14.28;61.04
59831;BME280;45711;50.108;13.712;2023-03-22T10:57:27;97461.31;;;14.41;60.07
59831;BME280;45711;50.108;13.712;2023-03-22T11:00:03;97452.41;;;14.41;59.40
59831;BME280;45711;50.108;13.712;2023-03-22T11:02:34;97445.94;;;14.33;61.81
59831;BME280;45711;50.108;13.712;2023-03-22T11:05:18;97444.84;;;14.43;61.41
59831;BME280;45711;50.108;13.712;2023-03-22T11:07:47;97437.97;;;13.17;65.87
59831;BME280;45711;50.108;13.712;2023-03-22T11:10:22;97451.13;;;14.21;59.76
59831;BME280;45711;50.108;13.712;2023-03-22T11:12:54;97441.97;;;13.82;63.17
59831;BME280;45711;50.108;13.712;2023-03-22T11:15:31;97443.22;;;14.24;62.19
59831;BME280;45711;50.108;13.712;2023-03-22T11:18:04;97425.59;;;12.85;67.04
59831;BME280;45711;50.108;13.712;2023-03-22T11:20:31;97433.56;;;12.54;69.19
59831;BME280;45711;50.108;13.712;2023-03-22T11:23:00;97424.78;;;12.12;70.66
59831;BME280;45711;50.108;13.712;2023-03-22T11:25:29;97429.31;;;14.40;59.54
59831;BME280;45711;50.108;13.712;2023-03-22T11:28:26;97421.00;;;14.01;62.87
59831;BME280;45711;50.108;13.712;2023-03-22T11:31:01;97418.56;;;13.43;65.54
59831;BME280;45711;50.108;13.712;2023-03-22T11:33:32;97411.25;;;12.90;67.67
59831;BME280;45711;50.108;13.712;2023-03-22T11:36:01;97406.19;;;12.16;71.04
59831;BME280;45711;50.108;13.712;2023-03-22T11:38:35;97404.34;;;12.02;72.38
59831;BME280;45711;50.108;13.712;2023-03-22T11:41:19;97412.94;;;13.08;66.94
59831;BME280;45711;50.108;13.712;2023-03-22T11:43:54;97392.91;;;12.11;71.49
59831;BME280;45711;50.108;13.712;2023-03-22T11:46:31;97393.38;;;12.13;71.71
59831;BME280;45711;50.108;13.712;2023-03-22T11:49:05;97395.63;;;13.76;63.98
59831;BME280;45711;50.108;13.712;2023-03-22T11:51:32;97390.22;;;14.94;56.63
59831;BME280;45711;50.108;13.712;2023-03-22T11:54:04;97380.09;;;13.33;65.96
59831;BME280;45711;50.108;13.712;2023-03-22T11:57:01;97382.44;;;14.41;62.39
59831;BME280;45711;50.108;13.712;2023-03-22T12:00:02;97371.41;;;13.76;64.41
59831;BME280;45711;50.108;13.712;2023-03-22T12:02:56;97373.22;;;14.07;61.08
59831;BME280;45711;50.108;13.712;2023-03-22T12:05:32;97357.94;;;13.05;67.38
59831;BME280;45711;50.108;13.712;2023-03-22T12:08:24;97363.72;;;13.52;65.15
59831;BME280;45711;50.108;13.712;2023-03-22T12:11:24;97352.00;;;12.27;70.88
59831;BME280;45711;50.108;13.712;2023-03-22T12:13:58;97354.00;;;12.58;69.84
59831;BME280;45711;50.108;13.712;2023-03-22T12:16:28;97359.00;;;14.15;62.85
59831;BME280;45711;50.108;13.712;2023-03-22T12:19:04;97347.22;;;12.61;69.90
59831;BME280;45711;50.108;13.712;2023-03-22T12:21:35;97348.06;;;12.92;67.67
59831;BME280;45711;50.108;13.712;2023-03-22T12:24:02;97350.06;;;13.89;63.38
59831;BME280;45711;50.108;13.712;2023-03-22T12:26:29;97356.03;;;14.77;58.18
59831;BME280;45711;50.108;13.712;2023-03-22T12:28:59;97343.25;;;13.34;65.92
59831;BME280;45711;50.108;13.712;2023-03-22T12:31:29;97350.09;;;13.49;64.04
59831;BME280;45711;50.108;13.712;2023-03-22T12:33:59;97336.81;;;14.18;61.64
59831;BME280;45711;50.108;13.712;2023-03-22T12:36:39;97336.50;;;13.94;62.00
59831;BME280;45711;50.108;13.712;2023-03-22T12:39:12;97334.25;;;12.76;68.28
59831;BME280;45711;50.108;13.712;2023-03-22T12:42:09;97317.25;;;12.22;70.72
59831;BME280;45711;50.108;13.712;2023-03-22T12:44:46;97327.97;;;13.12;65.37
59831;BME280;45711;50.108;13.712;2023-03-22T12:47:19;97319.00;;;13.65;65.23
59831;BME280;45711;50.108;13.712;2023-03-22T12:49:52;97312.34;;;13.45;65.51
59831;BME280;45711;50.108;13.712;2023-03-22T12:52:35;97315.94;;;12.78;68.88
59831;BME280;45711;50.108;13.712;2023-03-22T12:55:21;97302.63;;;11.78;73.19
59831;BME280;45711;50.108;13.712;2023-03-22T12:58:11;97308.19;;;11.96;73.28
59831;BME280;45711;50.108;13.712;2023-03-22T13:00:51;97303.16;;;11.67;74.32
59831;BME280;45711;50.108;13.712;2023-03-22T13:03:38;97296.19;;;11.66;75.39
59831;BME280;45711;50.108;13.712;2023-03-22T13:06:32;97299.38;;;11.95;74.13
59831;BME280;45711;50.108;13.712;2023-03-22T13:09:19;97299.66;;;11.94;74.08
59831;BME280;45711;50.108;13.712;2023-03-22T13:12:28;97288.75;;;11.76;75.73
59831;BME280;45711;50.108;13.712;2023-03-22T13:14:58;97287.41;;;11.51;76.92
59831;BME280;45711;50.108;13.712;2023-03-22T13:18:01;97284.06;;;11.96;74.14
59831;BME280;45711;50.108;13.712;2023-03-22T13:20:31;97283.13;;;11.50;77.43
59831;BME280;45711;50.108;13.712;2023-03-22T13:23:41;97279.03;;;11.53;77.68
59831;BME280;45711;50.108;13.712;2023-03-22T13:26:14;97273.56;;;11.86;75.90
59831;BME280;45711;50.108;13.712;2023-03-22T13:28:56;97291.59;;;13.37;67.87
59831;BME280;45711;50.108;13.712;2023-03-22T13:38:32;97282.50;;;12.17;71.71
59831;BME280;45711;50.108;13.712;2023-03-22T13:41:00;97275.22;;;12.85;66.17
59831;BME280;45711;50.108;13.712;2023-03-22T13:43:46;97266.47;;;12.26;71.27
59831;BME280;45711;50.108;13.712;2023-03-22T13:46:44;97275.44;;;12.21;71.29
59831;BME280;45711;50.108;13.712;2023-03-22T13:52:24;97268.38;;;12.25;73.05
59831;BME280;45711;50.108;13.712;2023-03-22T13:54:56;97272.75;;;12.44;71.84
59831;BME280;45711;50.108;13.712;2023-03-22T13:58:01;97260.75;;;11.82;75.78
59831;BME280;45711;50.108;13.712;2023-03-22T14:00:43;97256.44;;;11.59;77.74
59831;BME280;45711;50.108;13.712;2023-03-22T14:03:18;97257.19;;;11.73;76.92
59831;BME280;45711;50.108;13.712;2023-03-22T14:05:47;97252.75;;;12.05;74.14
59831;BME280;45711;50.108;13.712;2023-03-22T14:08:21;97264.19;;;11.97;75.82
59831;BME280;45711;50.108;13.712;2023-03-22T14:10:55;97260.78;;;12.05;75.29
59831;BME280;45711;50.108;13.712;2023-03-22T14:13:33;97261.97;;;12.35;71.85
59831;BME280;45711;50.108;13.712;2023-03-22T14:16:07;97258.28;;;12.76;70.27
59831;BME280;45711;50.108;13.712;2023-03-22T14:18:35;97255.22;;;12.15;74.24
59831;BME280;45711;50.108;13.712;2023-03-22T14:21:10;97255.81;;;12.12;75.24
59831;BME280;45711;50.108;13.712;2023-03-22T14:23:44;97255.34;;;11.96;75.68
59831;BME280;45711;50.108;13.712;2023-03-22T14:27:06;97248.44;;;11.81;76.03
59831;BME280;45711;50.108;13.712;2023-03-22T14:33:42;97236.31;;;11.84;77.27
59831;BME280;45711;50.108;13.712;2023-03-22T14:36:36;97245.22;;;12.07;75.63
59831;BME280;45711;50.108;13.712;2023-03-22T14:39:29;97239.31;;;11.82;77.48
59831;BME280;45711;50.108;13.712;2023-03-22T14:46:05;97237.72;;;11.81;77.55
59831;BME280;45711;50.108;13.712;2023-03-22T14:48:47;97232.66;;;11.80;78.48
59831;BME280;45711;50.108;13.712;2023-03-22T15:00:12;97237.41;;;12.42;72.00
59831;BME280;45711;50.108;13.712;2023-03-22T15:09:41;97223.19;;;11.96;75.60
59831;BME280;45711;50.108;13.712;2023-03-22T15:12:51;97231.09;;;12.01;77.43
59831;BME280;45711;50.108;13.712;2023-03-22T15:15:34;97220.75;;;12.08;77.02
59831;BME280;45711;50.108;13.712;2023-03-22T15:18:17;97216.47;;;12.30;75.03
59831;BME280;45711;50.108;13.712;2023-03-22T15:20:58;97216.44;;;12.21;75.25
59831;BME280;45711;50.108;13.712;2023-03-22T15:23:49;97220.22;;;11.98;76.32
59831;BME280;45711;50.108;13.712;2023-03-22T15:26:25;97227.16;;;12.21;76.63
59831;BME280;45711;50.108;13.712;2023-03-22T15:28:54;97224.34;;;12.26;75.95
59831;BME280;45711;50.108;13.712;2023-03-22T15:31:46;97221.06;;;12.07;77.45
59831;BME280;45711;50.108;13.712;2023-03-22T15:34:22;97216.69;;;12.11;77.04
59831;BME280;45711;50.108;13.712;2023-03-22T15:36:51;97214.00;;;12.33;75.73
59831;BME280;45711;50.108;13.712;2023-03-22T15:39:20;97220.69;;;12.22;75.98
59831;BME280;45711;50.108;13.712;2023-03-22T15:41:54;97215.63;;;12.21;76.02
59831;BME280;45711;50.108;13.712;2023-03-22T15:44:28;97213.25;;;12.42;73.62
59831;BME280;45711;50.108;13.712;2023-03-22T15:46:59;97217.22;;;12.22;77.12
59831;BME280;45711;50.108;13.712;2023-03-22T15:49:34;97216.13;;;12.23;75.69